Santa Isabel, Brazil
Current Conditions -  °F | °C
As of 11:00 PM on Friday 28 Nov 2014 (Local Time) from SBGR Reporting Station
Broken Clouds Broken Clouds  
Wind Chill: 66°   Ceiling: 1300
Heat Index: 66°   Visibility: 6mi
Dew Point: 63°   Wind: 8mph
Humidity: 88%   Direction: 140°SE
Pressure: 30.15"   Gusts: NA
Location:  23.32°S, 46.22°W
Report Text: SBGR 290100Z 14007KT 9999 SCT010 BKN013 19/17 Q1021
Loading
Personal Weather Stations






























Interactive Weather Map New forecast layout! Learn more

10-Day Weather Forecast

Advertisements
Track Severe Weather on mobile